createdAt,value
2022-08-11T03:54:34.463Z,22.09
2022-08-11T03:57:55.895Z,22.09
2022-08-11T04:01:49.655Z,21.78
2022-08-11T04:05:10.502Z,21.95
2022-08-11T04:08:35.387Z,22.02
2022-08-11T04:11:47.040Z,22.15
2022-08-11T04:15:32.759Z,22.21
2022-08-11T04:18:54.278Z,22.30
2022-08-11T04:22:15.606Z,22.43
2022-08-11T04:25:57.854Z,22.49
2022-08-11T04:29:17.606Z,22.45
2022-08-11T04:32:47.654Z,22.45
2022-08-11T04:36:51.675Z,22.50
2022-08-11T04:39:57.284Z,22.57
2022-08-11T04:43:25.004Z,22.55
2022-08-11T04:46:48.787Z,22.51
2022-08-11T04:50:44.039Z,22.51
2022-08-11T04:54:46.832Z,22.58
2022-08-11T04:58:47.556Z,22.59
2022-08-11T05:02:17.371Z,22.64
2022-08-11T05:05:56.538Z,22.65
2022-08-11T05:09:02.560Z,23.08
2022-08-11T05:12:14.620Z,23.33
2022-08-11T05:15:42.998Z,23.09
2022-08-11T05:19:10.774Z,23.16
2022-08-11T05:22:36.750Z,23.46
2022-08-11T05:26:43.029Z,23.52
2022-08-11T05:30:07.462Z,23.48
2022-08-11T05:33:33.784Z,24.06
2022-08-11T05:36:49.292Z,24.32
2022-08-11T05:40:33.185Z,24.27
2022-08-11T05:44:20.074Z,24.22
2022-08-11T05:47:46.041Z,23.74
2022-08-11T05:51:13.038Z,24.44
2022-08-11T05:54:38.798Z,24.47
2022-08-11T05:57:51.517Z,24.32
2022-08-11T06:00:55.771Z,24.49
2022-08-11T06:04:14.930Z,24.80
2022-08-11T06:07:18.209Z,24.89
2022-08-11T06:10:28.848Z,24.83
2022-08-11T06:13:32.186Z,25.05
2022-08-11T06:16:35.503Z,24.94
2022-08-11T06:19:41.912Z,24.82
2022-08-11T06:22:52.797Z,25.16
2022-08-11T06:25:56.208Z,25.47
2022-08-11T06:29:01.602Z,25.60
2022-08-11T06:32:06.325Z,25.31
2022-08-11T06:35:45.838Z,25.01
2022-08-11T06:39:06.823Z,25.39
2022-08-11T06:42:21.896Z,25.81
2022-08-11T06:45:40.041Z,25.63
2022-08-11T06:48:44.795Z,25.66
2022-08-11T06:51:48.363Z,25.93
2022-08-11T06:55:05.495Z,25.87
2022-08-11T06:58:35.016Z,26.18
2022-08-11T07:02:09.042Z,26.23
2022-08-11T07:05:23.354Z,25.95
2022-08-11T07:08:59.612Z,26.73
2022-08-11T07:12:56.535Z,26.40
2022-08-11T07:16:10.966Z,25.99
2022-08-11T07:19:38.476Z,26.23
2022-08-11T07:23:04.936Z,26.02
2022-08-11T07:26:27.263Z,26.02
2022-08-11T07:29:32.872Z,25.96
2022-08-11T07:32:48.559Z,25.95
2022-08-11T07:35:55.967Z,26.02
2022-08-11T07:39:00.502Z,26.56
2022-08-11T07:42:07.301Z,26.83
2022-08-11T07:45:28.900Z,26.50
2022-08-11T07:48:52.966Z,26.84
2022-08-11T07:52:14.847Z,26.73
2022-08-11T07:55:21.402Z,26.78
2022-08-11T07:58:53.256Z,26.82
2022-08-11T08:02:15.401Z,26.94
2022-08-11T08:05:38.411Z,26.91
2022-08-11T08:09:00.883Z,26.84
2022-08-11T08:12:23.784Z,27.07
2022-08-11T08:15:46.137Z,27.53
2022-08-11T08:18:49.068Z,27.10
2022-08-11T08:21:52.434Z,27.24
2022-08-11T08:24:56.323Z,27.06
2022-08-11T08:28:00.994Z,27.45
2022-08-11T08:31:03.996Z,27.34
2022-08-11T08:34:06.566Z,27.27
2022-08-11T08:37:15.637Z,27.72
2022-08-11T08:40:21.951Z,28.04
2022-08-11T08:43:25.615Z,28.13
2022-08-11T08:46:34.827Z,28.42
2022-08-11T08:49:49.426Z,28.40
2022-08-11T08:53:00.890Z,28.32
2022-08-11T08:56:06.017Z,27.99
2022-08-11T08:59:12.771Z,27.81
2022-08-11T09:02:17.413Z,27.40
2022-08-11T09:05:21.115Z,27.98
2022-08-11T09:08:24.569Z,28.08
2022-08-11T09:11:45.584Z,28.27
2022-08-11T09:15:05.547Z,29.04
2022-08-11T09:18:10.905Z,29.61
2022-08-11T09:21:15.490Z,29.62
2022-08-11T09:24:58.720Z,29.36
2022-08-11T09:28:04.915Z,29.43
2022-08-11T09:31:07.706Z,29.28
2022-08-11T09:34:13.673Z,29.36
2022-08-11T09:37:55.482Z,29.13
2022-08-11T09:41:02.673Z,29.42
2022-08-11T09:44:24.331Z,29.78
2022-08-11T09:47:30.548Z,30.05
2022-08-11T09:50:35.230Z,29.97
2022-08-11T09:54:04.100Z,29.29
2022-08-11T09:57:24.553Z,29.10
2022-08-11T10:00:38.043Z,28.87
2022-08-11T10:03:42.589Z,28.58
2022-08-11T10:07:04.650Z,28.16
2022-08-11T10:10:09.777Z,28.05
2022-08-11T10:14:31.358Z,28.14
2022-08-11T10:16:45.399Z,27.90
2022-08-11T10:20:04.257Z,27.88
2022-08-11T10:23:28.902Z,28.52
2022-08-11T10:26:51.499Z,28.78
2022-08-11T10:30:16.454Z,29.28
2022-08-11T10:33:42.877Z,28.94
2022-08-11T10:37:03.055Z,29.19
2022-08-11T10:40:08.224Z,29.63
2022-08-11T10:43:14.480Z,29.85
2022-08-11T10:46:55.836Z,30.06
2022-08-11T10:50:17.832Z,29.58
2022-08-11T10:53:38.974Z,29.49
2022-08-11T10:57:00.821Z,29.39
2022-08-11T11:00:06.782Z,29.34
2022-08-11T11:03:22.797Z,29.22
2022-08-11T11:06:44.854Z,29.42
2022-08-11T11:09:59.109Z,29.89
2022-08-11T11:13:20.681Z,30.30
2022-08-11T11:16:43.010Z,30.05
2022-08-11T11:19:46.618Z,29.90
2022-08-11T11:22:55.268Z,29.99
2022-08-11T11:26:07.378Z,30.21
2022-08-11T11:29:40.812Z,30.66
2022-08-11T11:33:34.355Z,30.44
2022-08-11T11:37:00.556Z,30.79
2022-08-11T11:40:13.001Z,30.55
2022-08-11T11:43:16.242Z,30.50
2022-08-11T11:46:19.192Z,30.81
2022-08-11T11:49:28.506Z,30.41
2022-08-11T11:52:31.625Z,30.05
2022-08-11T11:55:35.529Z,30.20
2022-08-11T11:58:59.028Z,29.75
2022-08-11T12:02:01.829Z,29.59
2022-08-11T12:05:14.957Z,28.94
2022-08-11T12:08:18.067Z,28.62
2022-08-11T12:11:43.484Z,28.63
2022-08-11T12:14:46.395Z,28.76
2022-08-11T12:17:52.757Z,28.94
2022-08-11T12:20:55.574Z,29.12
2022-08-11T12:24:20.034Z,29.28
2022-08-11T12:27:25.171Z,29.45
2022-08-11T12:30:29.516Z,29.51
2022-08-11T12:33:34.121Z,29.68
2022-08-11T12:36:51.616Z,29.76
2022-08-11T12:40:43.494Z,29.91
2022-08-11T12:44:05.844Z,29.67
2022-08-11T12:47:09.501Z,29.35
2022-08-11T12:50:45.992Z,29.31
2022-08-11T12:53:59.803Z,29.46
2022-08-11T12:57:36.903Z,29.50
2022-08-11T13:00:58.968Z,29.65
2022-08-11T13:04:21.233Z,29.57
2022-08-11T13:07:24.080Z,29.79
2022-08-11T13:10:48.439Z,29.94
2022-08-11T13:13:57.215Z,29.61
2022-08-11T13:17:19.735Z,29.26
2022-08-11T13:20:24.281Z,29.23
2022-08-11T13:23:29.664Z,29.57
2022-08-11T13:26:41.613Z,29.87
2022-08-11T13:30:13.186Z,29.87
2022-08-11T13:33:20.140Z,29.84
2022-08-11T13:36:28.434Z,29.56
2022-08-11T13:39:33.402Z,29.50
2022-08-11T13:42:38.018Z,29.41
2022-08-11T13:45:41.244Z,29.08
2022-08-11T13:48:44.756Z,28.68
2022-08-11T13:51:47.392Z,28.68
2022-08-11T13:54:53.133Z,28.79
2022-08-11T13:58:19.247Z,28.79
2022-08-11T14:02:19.972Z,28.74
2022-08-11T14:05:01.516Z,28.78
2022-08-11T14:08:10.664Z,28.90
2022-08-11T14:12:21.364Z,28.99
2022-08-11T14:15:21.106Z,29.26
2022-08-11T14:18:28.815Z,29.40
2022-08-11T14:21:55.454Z,29.41
2022-08-11T14:24:58.659Z,29.35
2022-08-11T14:28:31.583Z,29.42
2022-08-11T14:31:25.709Z,29.53
2022-08-11T14:34:30.249Z,29.42
2022-08-11T14:37:33.169Z,29.44
2022-08-11T14:40:55.654Z,29.35
2022-08-11T14:44:17.500Z,29.23
2022-08-11T14:47:24.403Z,29.20
2022-08-11T14:50:30.358Z,29.02
2022-08-11T14:53:33.048Z,28.97
2022-08-11T14:56:37.211Z,28.99
2022-08-11T14:59:40.861Z,28.82
2022-08-11T15:03:05.091Z,28.94
2022-08-11T15:06:10.541Z,28.90
2022-08-11T15:09:13.206Z,28.96
2022-08-11T15:12:32.495Z,28.88
2022-08-11T15:15:55.826Z,28.82
2022-08-11T15:18:59.123Z,28.83
2022-08-11T15:22:23.756Z,28.82
2022-08-11T15:25:30.800Z,28.79
2022-08-11T15:28:58.961Z,28.72
